Time;durP1;ratioP1;P1;durP2;ratioP2;P2;SDS_P1;SDS_P2;PMS_P1;PMS_P2;Temp;Humidity;BMP_temperature;BMP_pressure;BME280_temperature;BME280_humidity;BME280_pressure;Samples;Min_cycle;Max_cycle;Signal;HPM_P1;HPM_P2
2022/03/11 00:00:59;;;;;;;6.47;3.55;;;7.90;29.40;;;;;;5120417;28;20019;-67
2022/03/11 00:03:25;;;;;;;5.88;3.83;;;7.90;29.40;;;;;;5120486;28;20043;-66
2022/03/11 00:05:52;;;;;;;6.13;3.92;;;7.90;29.50;;;;;;5120423;28;20327;-67
2022/03/11 00:08:18;;;;;;;6.28;4.13;;;8.00;29.50;;;;;;5120428;28;20098;-66
2022/03/11 00:10:44;;;;;;;6.78;3.85;;;7.90;29.40;;;;;;5120286;28;20028;-66
2022/03/11 00:13:09;;;;;;;5.85;4.03;;;7.80;29.80;;;;;;5120362;28;20043;-66
2022/03/11 00:15:35;;;;;;;7.78;3.88;;;7.90;29.50;;;;;;5120575;28;20034;-68
2022/03/11 00:18:01;;;;;;;6.43;3.83;;;7.80;29.50;;;;;;5120292;28;20346;-64
2022/03/11 00:20:27;;;;;;;7.30;4.40;;;7.80;29.50;;;;;;5120185;28;20015;-67
2022/03/11 00:22:53;;;;;;;6.85;3.90;;;7.90;29.40;;;;;;5120222;28;20026;-66
2022/03/11 00:25:20;;;;;;;5.50;3.90;;;7.90;29.90;;;;;;5120175;28;20034;-66
2022/03/11 00:27:46;;;;;;;5.72;3.65;;;8.00;29.90;;;;;;5120200;28;20015;-66
2022/03/11 00:30:13;;;;;;;7.75;4.43;;;7.80;29.30;;;;;;5120244;28;20035;-65
2022/03/11 00:32:39;;;;;;;3.92;3.00;;;7.70;29.20;;;;;;5120178;28;20034;-66
2022/03/11 00:35:14;;;;;;;6.03;4.38;;;7.60;29.70;;;;;;5120139;28;20027;-66
2022/03/11 00:37:41;;;;;;;6.95;4.00;;;7.50;29.50;;;;;;5120131;28;20069;-67
2022/03/11 00:40:08;;;;;;;7.32;3.95;;;7.40;29.40;;;;;;5119905;28;20364;-66
2022/03/11 00:42:34;;;;;;;6.03;3.97;;;7.40;29.50;;;;;;5120091;28;20031;-66
2022/03/11 00:45:00;;;;;;;5.80;3.78;;;7.40;29.30;;;;;;5120135;28;20549;-66
2022/03/11 00:47:26;;;;;;;4.18;3.47;;;7.50;29.60;;;;;;5120001;28;20089;-68
2022/03/11 00:49:52;;;;;;;6.50;3.92;;;7.60;29.40;;;;;;5119965;28;20336;-67
2022/03/11 00:52:18;;;;;;;5.65;3.80;;;7.60;29.40;;;;;;5119982;28;20061;-67
2022/03/11 00:54:44;;;;;;;5.55;4.05;;;7.50;29.00;;;;;;5119918;28;20068;-66
2022/03/11 00:57:09;;;;;;;6.55;4.03;;;7.40;29.00;;;;;;5119995;28;20247;-67
2022/03/11 00:59:35;;;;;;;7.32;4.43;;;7.40;29.00;;;;;;5119889;28;20243;-67
2022/03/11 01:02:01;;;;;;;6.72;4.10;;;7.30;29.30;;;;;;5119753;28;20043;-66
2022/03/11 01:04:26;;;;;;;6.85;3.83;;;7.40;29.30;;;;;;5119852;28;20012;-65
2022/03/11 01:06:52;;;;;;;5.70;3.70;;;7.40;29.20;;;;;;5119898;28;20020;-67
2022/03/11 01:09:18;;;;;;;9.95;4.72;;;7.30;29.30;;;;;;5123260;28;20023;-67
2022/03/11 01:11:43;;;;;;;7.47;4.00;;;7.30;29.30;;;;;;5123403;28;20035;-67
2022/03/11 01:14:09;;;;;;;6.03;3.70;;;7.40;29.10;;;;;;5123438;28;20204;-67
2022/03/11 01:16:35;;;;;;;5.85;3.78;;;7.40;28.80;;;;;;5123346;28;20027;-66
2022/03/11 01:19:01;;;;;;;7.35;3.63;;;7.30;29.10;;;;;;5123336;28;20035;-67
2022/03/11 01:21:26;;;;;;;6.30;3.90;;;7.40;29.10;;;;;;5123213;28;20303;-67
2022/03/11 01:23:53;;;;;;;6.13;3.78;;;7.30;29.10;;;;;;5123294;28;20024;-66
2022/03/11 01:26:19;;;;;;;6.22;4.03;;;7.40;29.60;;;;;;5123227;28;20023;-67
2022/03/11 01:28:45;;;;;;;6.55;4.20;;;7.20;29.50;;;;;;5123088;28;20019;-67
2022/03/11 01:31:12;;;;;;;5.57;3.60;;;7.30;29.50;;;;;;5123052;28;20148;-66
2022/03/11 01:33:39;;;;;;;5.60;3.70;;;7.20;29.20;;;;;;5123030;28;20033;-67
2022/03/11 01:36:09;;;;;;;7.20;3.95;;;7.20;29.20;;;;;;5122972;28;20358;-66
2022/03/11 01:38:35;;;;;;;6.18;3.63;;;7.20;29.40;;;;;;5121681;28;20038;-65
2022/03/11 01:41:01;;;;;;;7.30;4.07;;;7.20;29.20;;;;;;5122668;28;20050;-67
2022/03/11 01:43:28;;;;;;;6.35;3.75;;;7.20;29.30;;;;;;5122743;28;20011;-67
2022/03/11 01:45:54;;;;;;;5.63;3.50;;;7.20;29.40;;;;;;5121464;28;20094;-66
2022/03/11 01:48:20;;;;;;;7.10;4.40;;;7.10;29.10;;;;;;5122732;27;20026;-66
2022/03/11 01:50:46;;;;;;;7.10;4.35;;;7.10;29.10;;;;;;5122666;28;20047;-67
2022/03/11 01:53:13;;;;;;;6.22;4.05;;;7.00;29.30;;;;;;5122610;28;20057;-67
2022/03/11 01:55:39;;;;;;;8.88;4.95;;;7.00;29.30;;;;;;5122657;28;20038;-67
2022/03/11 01:58:06;;;;;;;6.93;3.97;;;7.00;29.50;;;;;;5122544;28;20039;-67
2022/03/11 02:00:38;;;;;;;7.88;4.43;;;6.90;29.80;;;;;;5122435;28;20505;-67
2022/03/11 02:03:05;;;;;;;5.53;3.45;;;6.80;29.50;;;;;;5122516;28;20066;-65
2022/03/11 02:05:31;;;;;;;7.30;4.38;;;6.90;29.60;;;;;;5122478;28;20091;-67
2022/03/11 02:07:58;;;;;;;7.18;4.50;;;7.00;29.50;;;;;;5122291;28;20159;-66
2022/03/11 02:10:25;;;;;;;9.15;3.35;;;6.90;29.40;;;;;;5122234;28;20019;-67
2022/03/11 02:12:51;;;;;;;7.53;4.30;;;6.80;29.80;;;;;;5122286;28;20119;-65
2022/03/11 02:15:16;;;;;;;6.60;4.15;;;6.80;29.40;;;;;;5122143;28;20027;-66
2022/03/11 02:17:42;;;;;;;6.45;4.07;;;6.80;29.40;;;;;;5122207;28;20049;-66
2022/03/11 02:20:08;;;;;;;6.60;3.88;;;6.70;29.60;;;;;;5121740;27;20024;-67
2022/03/11 02:22:38;;;;;;;5.53;3.95;;;6.80;29.70;;;;;;5120786;28;20213;-66
2022/03/11 02:25:09;;;;;;;5.65;3.63;;;6.80;29.50;;;;;;5122043;28;20090;-66
2022/03/11 02:27:36;;;;;;;7.10;4.10;;;6.80;29.30;;;;;;5121955;28;20116;-67
2022/03/11 02:30:30;;;;;;;6.32;3.92;;;6.80;29.40;;;;;;5121967;28;20075;-67
2022/03/11 02:32:55;;;;;;;5.65;3.88;;;6.80;29.30;;;;;;5117847;28;20037;-67
2022/03/11 02:35:21;;;;;;;5.63;3.88;;;6.80;29.50;;;;;;5121827;28;20049;-66
2022/03/11 02:37:46;;;;;;;7.07;4.18;;;6.70;29.20;;;;;;5121704;28;20019;-66
2022/03/11 02:40:13;;;;;;;8.80;4.50;;;6.70;29.30;;;;;;5121478;28;20038;-66
2022/03/11 02:42:39;;;;;;;6.70;4.25;;;6.60;29.70;;;;;;5121686;27;20065;-67
2022/03/11 02:45:06;;;;;;;5.90;3.92;;;6.60;29.40;;;;;;5121573;28;20020;-66
2022/03/11 02:47:32;;;;;;;4.45;3.50;;;6.50;29.50;;;;;;5121542;28;20443;-67
2022/03/11 02:49:58;;;;;;;6.68;4.13;;;6.60;29.50;;;;;;5121192;28;20027;-67
2022/03/11 02:52:25;;;;;;;5.60;3.72;;;6.50;29.50;;;;;;5121389;28;20080;-66
2022/03/11 02:54:51;;;;;;;6.50;3.83;;;6.60;29.80;;;;;;5121509;28;20035;-66
2022/03/11 02:57:17;;;;;;;6.95;4.68;;;6.50;29.80;;;;;;5121377;28;20344;-67
2022/03/11 02:59:46;;;;;;;5.90;3.40;;;6.40;29.70;;;;;;5121681;28;20087;-66
2022/03/11 03:02:13;;;;;;;7.47;4.25;;;6.40;30.00;;;;;;5121281;28;20019;-65
2022/03/11 03:04:39;;;;;;;6.88;4.43;;;6.40;30.00;;;;;;5121304;28;20036;-66
2022/03/11 03:07:07;;;;;;;5.57;3.45;;;6.30;30.00;;;;;;5121173;28;20023;-66
2022/03/11 03:09:33;;;;;;;8.45;4.20;;;6.30;29.90;;;;;;5121208;28;20442;-66
2022/03/11 03:11:58;;;;;;;6.82;3.78;;;6.30;30.00;;;;;;5121148;28;20034;-67
2022/03/11 03:14:24;;;;;;;6.30;4.07;;;6.20;30.30;;;;;;5121072;28;20023;-67
2022/03/11 03:16:50;;;;;;;6.90;4.10;;;6.20;30.00;;;;;;5121017;28;20212;-68
2022/03/11 03:19:15;;;;;;;6.47;3.90;;;6.30;30.20;;;;;;5120975;28;20035;-66
2022/03/11 03:21:41;;;;;;;6.47;3.78;;;6.10;30.10;;;;;;5120913;28;20033;-66
2022/03/11 03:24:07;;;;;;;5.57;4.10;;;6.20;30.50;;;;;;5120898;28;20039;-66
2022/03/11 03:26:32;;;;;;;7.05;4.38;;;6.10;30.50;;;;;;5120863;28;20417;-68
2022/03/11 03:28:58;;;;;;;7.07;4.28;;;6.20;30.00;;;;;;5120820;28;20091;-67
2022/03/11 03:31:24;;;;;;;6.15;4.15;;;6.10;30.20;;;;;;5120131;28;20019;-67
2022/03/11 03:33:50;;;;;;;7.65;4.13;;;6.00;30.30;;;;;;5120780;28;20027;-67
2022/03/11 03:36:15;;;;;;;5.15;3.53;;;6.10;30.40;;;;;;5120699;28;20043;-66
2022/03/11 03:38:41;;;;;;;4.95;3.60;;;6.00;30.60;;;;;;5120706;28;20281;-67
2022/03/11 03:41:07;;;;;;;6.25;4.32;;;6.00;30.80;;;;;;5120397;28;20047;-67
2022/03/11 03:43:33;;;;;;;6.82;4.38;;;6.00;30.40;;;;;;5120694;27;20031;-65
2022/03/11 03:45:59;;;;;;;6.20;3.88;;;5.90;30.60;;;;;;5120647;28;20038;-67
2022/03/11 03:48:25;;;;;;;6.55;4.13;;;5.90;30.30;;;;;;5120578;28;20537;-67
2022/03/11 03:50:51;;;;;;;8.07;5.15;;;5.90;30.60;;;;;;5120624;28;20038;-66
2022/03/11 03:53:16;;;;;;;6.43;4.10;;;6.00;30.00;;;;;;5120477;28;20039;-66
2022/03/11 03:55:42;;;;;;;6.18;3.92;;;6.00;30.40;;;;;;5120548;28;20085;-66
2022/03/11 03:58:08;;;;;;;8.30;4.78;;;6.00;30.10;;;;;;5120499;28;20480;-67
2022/03/11 04:00:34;;;;;;;6.75;4.50;;;6.00;30.30;;;;;;5118993;28;20328;-66
2022/03/11 04:03:00;;;;;;;7.40;4.55;;;5.90;30.60;;;;;;5120492;28;20019;-66
2022/03/11 04:05:26;;;;;;;8.60;4.20;;;5.90;30.30;;;;;;5120356;28;20047;-67
2022/03/11 04:07:51;;;;;;;6.90;3.97;;;5.90;30.40;;;;;;5120453;28;20079;-68
2022/03/11 04:10:18;;;;;;;7.95;4.63;;;5.90;30.30;;;;;;5120308;28;20015;-67
2022/03/11 04:12:44;;;;;;;6.82;4.10;;;5.90;30.20;;;;;;5120367;28;20035;-66
2022/03/11 04:15:10;;;;;;;6.57;4.18;;;5.90;30.50;;;;;;5120316;28;20095;-66
2022/03/11 04:17:35;;;;;;;8.45;4.15;;;5.80;30.70;;;;;;5120290;28;20037;-66
2022/03/11 04:20:02;;;;;;;6.90;4.50;;;5.70;30.90;;;;;;5120227;28;20058;-65
2022/03/11 04:22:27;;;;;;;7.20;3.78;;;5.70;30.40;;;;;;5120232;28;20020;-66
2022/03/11 04:24:53;;;;;;;6.35;3.80;;;5.80;30.90;;;;;;5120254;28;20051;-66
2022/03/11 04:27:19;;;;;;;6.38;3.70;;;5.70;30.80;;;;;;5120180;28;20033;-67
2022/03/11 04:29:45;;;;;;;6.95;4.20;;;5.70;31.00;;;;;;5120152;28;20028;-66
2022/03/11 04:32:10;;;;;;;5.68;3.50;;;5.60;30.90;;;;;;5120184;28;20042;-65
2022/03/11 04:34:36;;;;;;;5.93;4.07;;;5.60;31.00;;;;;;5120086;28;20080;-66
2022/03/11 04:37:02;;;;;;;6.82;4.07;;;5.60;30.50;;;;;;5120074;28;20019;-66
2022/03/11 04:39:28;;;;;;;6.63;3.75;;;5.60;30.60;;;;;;5120089;28;20410;-66
2022/03/11 04:41:54;;;;;;;7.00;4.35;;;5.50;31.00;;;;;;5121331;28;20051;-67
2022/03/11 04:44:20;;;;;;;5.00;3.53;;;5.50;31.20;;;;;;5122673;28;20105;-66
2022/03/11 04:46:48;;;;;;;8.88;4.22;;;5.40;31.00;;;;;;5123929;28;20063;-67
2022/03/11 04:49:14;;;;;;;7.28;4.20;;;5.40;31.20;;;;;;5123845;28;20405;-66
2022/03/11 04:51:40;;;;;;;7.45;4.00;;;5.40;31.40;;;;;;5123882;28;20042;-67
2022/03/11 04:54:06;;;;;;;9.25;4.00;;;5.30;31.40;;;;;;5123753;28;20027;-66
2022/03/11 04:56:32;;;;;;;6.57;3.85;;;5.40;31.30;;;;;;5123799;28;20365;-67
2022/03/11 04:58:58;;;;;;;4.72;3.22;;;5.40;31.30;;;;;;5123727;28;20096;-67
2022/03/11 05:01:25;;;;;;;7.15;3.60;;;5.40;31.20;;;;;;5123619;28;20086;-67
2022/03/11 05:03:50;;;;;;;5.63;3.78;;;5.30;31.30;;;;;;5123679;28;20034;-65
2022/03/11 05:06:16;;;;;;;6.35;3.72;;;5.30;31.30;;;;;;5123529;28;20024;-67
2022/03/11 05:08:42;;;;;;;7.05;3.67;;;5.30;31.40;;;;;;5123567;28;20019;-66
2022/03/11 05:11:08;;;;;;;6.00;3.67;;;5.30;31.50;;;;;;5123452;28;20027;-66
2022/03/11 05:13:34;;;;;;;9.10;4.43;;;5.30;31.50;;;;;;5123362;28;20061;-66
2022/03/11 05:16:00;;;;;;;6.40;3.90;;;5.30;31.30;;;;;;5123391;28;20079;-67
2022/03/11 05:18:26;;;;;;;7.35;4.20;;;5.30;31.60;;;;;;5123269;28;20027;-67
2022/03/11 05:20:52;;;;;;;7.53;3.80;;;5.30;31.20;;;;;;5123212;28;20038;-66
2022/03/11 05:23:18;;;;;;;6.60;4.25;;;5.30;31.30;;;;;;5123200;28;20343;-67
2022/03/11 05:25:44;;;;;;;7.75;4.13;;;5.20;31.40;;;;;;5123161;28;20117;-66
2022/03/11 05:28:10;;;;;;;6.53;4.13;;;5.30;31.60;;;;;;5123175;28;20027;-67
2022/03/11 05:30:36;;;;;;;5.15;3.40;;;5.30;31.40;;;;;;5123141;28;20030;-66
2022/03/11 05:33:03;;;;;;;10.63;4.03;;;5.30;31.40;;;;;;5123019;28;20016;-67
2022/03/11 05:35:29;;;;;;;6.95;3.92;;;5.30;31.40;;;;;;5121716;28;20092;-67
2022/03/11 05:37:55;;;;;;;8.05;3.75;;;5.20;32.00;;;;;;5122900;28;20027;-66
2022/03/11 05:40:21;;;;;;;7.03;3.35;;;5.30;31.70;;;;;;5122647;28;20118;-65
2022/03/11 05:42:47;;;;;;;6.75;4.45;;;5.20;31.90;;;;;;5122809;28;20031;-66
2022/03/11 05:45:12;;;;;;;5.53;4.00;;;5.20;32.00;;;;;;5121441;28;20077;-65
2022/03/11 05:47:39;;;;;;;6.63;3.97;;;5.20;31.80;;;;;;5122759;28;20047;-68
2022/03/11 05:50:06;;;;;;;5.47;4.03;;;5.20;31.70;;;;;;5122693;28;20027;-66
2022/03/11 05:52:34;;;;;;;7.20;4.28;;;5.20;32.00;;;;;;5122703;28;20051;-67
2022/03/11 05:54:59;;;;;;;5.85;3.38;;;5.20;31.70;;;;;;5122092;28;20020;-66
2022/03/11 05:57:25;;;;;;;7.45;4.20;;;5.30;31.30;;;;;;5122502;28;20026;-67
2022/03/11 05:59:51;;;;;;;5.95;3.47;;;5.30;31.60;;;;;;5122550;28;20054;-67
2022/03/11 06:02:16;;;;;;;8.35;3.95;;;5.30;31.70;;;;;;5122365;28;20470;-66
2022/03/11 06:04:42;;;;;;;7.75;4.20;;;5.30;31.40;;;;;;5121159;28;20035;-66
2022/03/11 06:07:08;;;;;;;5.70;3.95;;;5.40;31.30;;;;;;5121060;28;20028;-68
2022/03/11 06:09:34;;;;;;;7.82;4.18;;;5.30;31.80;;;;;;5122334;28;20091;-67
2022/03/11 06:11:59;;;;;;;5.82;3.70;;;5.40;31.60;;;;;;5122286;28;20031;-67
2022/03/11 06:14:25;;;;;;;8.20;4.22;;;5.40;31.50;;;;;;5122230;28;20053;-66
2022/03/11 06:16:51;;;;;;;5.72;4.15;;;5.30;31.70;;;;;;5122207;28;20035;-67
2022/03/11 06:19:17;;;;;;;9.63;4.60;;;5.30;31.70;;;;;;5120783;28;20034;-67
2022/03/11 06:21:43;;;;;;;6.78;4.15;;;5.30;32.10;;;;;;5121972;28;20019;-67
2022/03/11 06:24:09;;;;;;;7.47;4.18;;;5.30;31.30;;;;;;5120745;28;20023;-66
2022/03/11 06:26:34;;;;;;;6.43;4.38;;;5.40;31.70;;;;;;5121896;28;20024;-66
2022/03/11 06:29:00;;;;;;;6.78;4.30;;;5.30;31.60;;;;;;5121966;28;20267;-67
2022/03/11 06:31:26;;;;;;;6.88;4.00;;;5.30;31.60;;;;;;5121868;28;20023;-67
2022/03/11 06:33:52;;;;;;;7.15;4.85;;;5.30;31.70;;;;;;5121866;28;20023;-67
2022/03/11 06:36:18;;;;;;;10.07;4.63;;;5.40;31.70;;;;;;5121816;28;20332;-66
2022/03/11 06:38:43;;;;;;;10.15;5.18;;;5.50;31.80;;;;;;5120411;28;20032;-66
2022/03/11 06:41:09;;;;;;;9.65;4.93;;;5.50;31.70;;;;;;5121473;28;20043;-67
2022/03/11 06:43:35;;;;;;;6.40;4.20;;;5.50;31.70;;;;;;5121626;28;20078;-66
2022/03/11 06:46:01;;;;;;;9.80;4.50;;;5.50;31.80;;;;;;5121610;27;20027;-66
2022/03/11 06:48:26;;;;;;;11.85;4.40;;;5.50;31.70;;;;;;5120226;28;20051;-66
2022/03/11 06:50:52;;;;;;;8.73;5.28;;;5.60;31.60;;;;;;5121629;28;20060;-66
2022/03/11 06:53:18;;;;;;;9.05;5.13;;;5.60;31.60;;;;;;5121531;28;20319;-67
2022/03/11 06:55:44;;;;;;;8.52;5.00;;;5.70;31.50;;;;;;5121443;28;20291;-67
2022/03/11 06:58:10;;;;;;;7.75;4.10;;;5.70;31.30;;;;;;5120074;28;20032;-67
2022/03/11 07:00:35;;;;;;;7.55;4.15;;;5.90;30.90;;;;;;5121509;28;20027;-67
2022/03/11 07:03:02;;;;;;;6.57;3.90;;;5.90;31.00;;;;;;5121348;28;20082;-65
2022/03/11 07:05:28;;;;;;;7.85;3.88;;;6.00;30.80;;;;;;5120287;28;20007;-66
2022/03/11 07:07:54;;;;;;;6.90;5.10;;;6.10;30.70;;;;;;5121217;28;20128;-65
2022/03/11 07:10:20;;;;;;;12.30;4.70;;;6.20;30.80;;;;;;5121170;28;20027;-66
2022/03/11 07:12:46;;;;;;;7.70;4.10;;;6.20;30.40;;;;;;5121161;28;20027;-67
2022/03/11 07:15:12;;;;;;;7.43;4.38;;;6.20;30.40;;;;;;5121087;28;20061;-66
2022/03/11 07:17:37;;;;;;;6.93;4.88;;;6.30;30.10;;;;;;5120971;28;20020;-67
2022/03/11 07:20:04;;;;;;;9.55;4.82;;;6.40;30.30;;;;;;5120885;28;20051;-66
2022/03/11 07:22:32;;;;;;;6.60;4.10;;;6.50;30.40;;;;;;5120950;28;20023;-67
2022/03/11 07:24:58;;;;;;;7.28;3.88;;;6.60;30.00;;;;;;5119611;28;20204;-67
2022/03/11 07:27:24;;;;;;;7.88;4.10;;;6.60;29.80;;;;;;5120862;28;20023;-66
2022/03/11 07:29:50;;;;;;;9.48;4.60;;;6.70;29.80;;;;;;5120894;28;20016;-66
2022/03/11 07:32:17;;;;;;;7.10;4.30;;;6.80;29.80;;;;;;5120778;28;20027;-66
2022/03/11 07:34:43;;;;;;;7.78;4.43;;;6.80;29.80;;;;;;5120782;28;20016;-67
2022/03/11 07:37:12;;;;;;;5.03;3.80;;;6.90;30.00;;;;;;5120737;28;20253;-67
2022/03/11 07:39:41;;;;;;;5.28;3.70;;;6.90;29.50;;;;;;5120573;28;20071;-67
2022/03/11 07:42:08;;;;;;;5.45;3.88;;;7.00;29.60;;;;;;5120592;28;20019;-67
2022/03/11 07:44:34;;;;;;;6.57;3.55;;;7.00;29.60;;;;;;5120624;28;20027;-66
2022/03/11 07:47:00;;;;;;;6.82;4.30;;;7.00;29.50;;;;;;5120658;28;20092;-68
2022/03/11 07:49:27;;;;;;;5.82;4.13;;;7.10;29.30;;;;;;5120574;28;20032;-68
2022/03/11 07:51:53;;;;;;;6.95;3.53;;;7.10;29.10;;;;;;5120589;28;20092;-68
2022/03/11 07:54:18;;;;;;;7.20;3.72;;;7.20;29.10;;;;;;5120574;28;20028;-66
2022/03/11 07:56:44;;;;;;;8.55;4.25;;;7.30;29.10;;;;;;5120460;28;20047;-66
2022/03/11 07:59:10;;;;;;;6.53;4.00;;;7.20;29.20;;;;;;5120495;28;20082;-67
2022/03/11 08:01:36;;;;;;;8.13;3.75;;;7.20;28.90;;;;;;5120379;28;20096;-67
2022/03/11 08:04:03;;;;;;;7.68;4.25;;;7.20;29.00;;;;;;5120442;28;20031;-66
2022/03/11 08:06:30;;;;;;;5.95;3.85;;;7.30;28.80;;;;;;5120434;28;20016;-67
2022/03/11 08:08:56;;;;;;;6.50;4.20;;;7.30;28.70;;;;;;5120321;28;20339;-67
2022/03/11 08:11:22;;;;;;;7.60;3.97;;;7.20;28.70;;;;;;5120442;28;20031;-67
2022/03/11 08:13:48;;;;;;;5.40;3.72;;;7.20;28.70;;;;;;5120342;28;20016;-67
2022/03/11 08:16:14;;;;;;;6.85;3.67;;;7.30;28.60;;;;;;5120705;28;20027;-66
2022/03/11 08:18:41;;;;;;;7.85;3.97;;;7.30;28.60;;;;;;5124536;28;20060;-67
2022/03/11 08:21:08;;;;;;;7.10;4.75;;;7.40;28.60;;;;;;5124365;28;20054;-66
2022/03/11 08:23:33;;;;;;;5.63;3.63;;;7.50;28.40;;;;;;5124422;28;20015;-66
2022/03/11 08:25:59;;;;;;;5.40;3.30;;;7.50;28.30;;;;;;5123411;28;20114;-67
2022/03/11 08:28:25;;;;;;;5.72;3.85;;;7.60;28.20;;;;;;5124318;28;20020;-67
2022/03/11 08:30:52;;;;;;;5.88;4.13;;;7.60;28.30;;;;;;5124268;28;20265;-65
2022/03/11 08:33:22;;;;;;;7.90;3.42;;;7.60;28.10;;;;;;5124193;27;20047;-68
2022/03/11 08:35:49;;;;;;;7.15;3.75;;;7.60;28.30;;;;;;5124217;28;20023;-66
2022/03/11 08:38:16;;;;;;;6.22;4.07;;;7.60;28.20;;;;;;5124187;28;20027;-66
2022/03/11 08:40:42;;;;;;;5.40;3.55;;;7.70;28.00;;;;;;5122652;28;20071;-66
2022/03/11 08:43:09;;;;;;;6.25;3.78;;;7.70;28.00;;;;;;5124039;28;20070;-66
2022/03/11 08:45:35;;;;;;;4.40;3.45;;;7.70;28.00;;;;;;5123982;27;20030;-66
2022/03/11 08:48:01;;;;;;;7.47;3.78;;;7.70;28.00;;;;;;5123958;28;20035;-66
2022/03/11 08:50:27;;;;;;;7.35;3.85;;;7.80;28.00;;;;;;5123920;28;20031;-65
2022/03/11 08:52:53;;;;;;;7.38;3.72;;;7.80;28.10;;;;;;5123889;28;20023;-65
2022/03/11 08:55:19;;;;;;;6.50;3.78;;;7.70;28.00;;;;;;5123911;28;20389;-67
2022/03/11 08:57:49;;;;;;;6.50;4.22;;;7.80;28.10;;;;;;5123750;28;20027;-67
2022/03/11 09:00:16;;;;;;;6.82;3.10;;;7.90;28.20;;;;;;5122397;28;20219;-67
2022/03/11 09:02:43;;;;;;;8.23;4.13;;;8.00;27.90;;;;;;5123715;28;20030;-66
2022/03/11 09:05:09;;;;;;;6.28;3.70;;;8.00;28.10;;;;;;5123684;27;20019;-67
2022/03/11 09:07:36;;;;;;;6.78;3.90;;;8.00;28.00;;;;;;5123606;28;20567;-67
2022/03/11 09:10:04;;;;;;;7.22;4.20;;;8.00;27.90;;;;;;5123582;28;20023;-66
2022/03/11 09:12:30;;;;;;;5.88;3.90;;;8.00;27.90;;;;;;5123537;28;20054;-66
2022/03/11 09:14:56;;;;;;;7.60;3.72;;;8.00;28.30;;;;;;5123398;28;20258;-67
2022/03/11 09:17:21;;;;;;;5.95;4.03;;;8.10;28.00;;;;;;5123436;28;20031;-67
2022/03/11 09:19:47;;;;;;;7.97;3.75;;;8.20;27.80;;;;;;5123392;28;20019;-68
2022/03/11 09:22:14;;;;;;;6.35;3.45;;;8.20;28.10;;;;;;5123258;28;20027;-66
2022/03/11 09:24:40;;;;;;;8.20;3.90;;;8.20;27.90;;;;;;5122076;28;20028;-67
2022/03/11 09:27:11;;;;;;;7.82;4.10;;;8.10;27.60;;;;;;5123176;28;20026;-66
2022/03/11 09:29:37;;;;;;;7.00;3.95;;;8.20;27.90;;;;;;5122084;28;20019;-65
2022/03/11 09:32:03;;;;;;;6.32;3.58;;;8.20;28.10;;;;;;5123168;28;20031;-66
2022/03/11 09:34:30;;;;;;;11.50;4.43;;;8.30;28.20;;;;;;5123071;28;20071;-68
2022/03/11 09:36:56;;;;;;;6.57;3.95;;;8.30;27.90;;;;;;5123317;27;20039;-66
2022/03/11 09:39:23;;;;;;;4.80;3.83;;;8.40;27.90;;;;;;5123030;28;20090;-68
2022/03/11 09:41:49;;;;;;;7.05;3.65;;;8.40;27.70;;;;;;5121522;28;20048;-66
2022/03/11 09:44:19;;;;;;;6.78;4.03;;;8.40;28.00;;;;;;5122911;28;20335;-68
2022/03/11 09:46:45;;;;;;;5.53;3.65;;;8.40;27.50;;;;;;5122870;27;20031;-66
2022/03/11 09:49:17;;;;;;;7.07;4.57;;;8.40;27.40;;;;;;5122790;28;20027;-65
2022/03/11 09:51:45;;;;;;;6.28;3.75;;;8.50;27.50;;;;;;5122777;28;20026;-66
2022/03/11 09:54:14;;;;;;;6.90;3.92;;;8.50;27.40;;;;;;5122762;28;20023;-66
2022/03/11 09:56:42;;;;;;;7.65;3.70;;;8.50;27.40;;;;;;5122744;28;20107;-67
2022/03/11 09:59:09;;;;;;;6.65;3.92;;;8.50;27.50;;;;;;5122632;28;20016;-67
2022/03/11 10:01:40;;;;;;;4.32;3.45;;;8.70;27.60;;;;;;5122516;28;20019;-67
2022/03/11 10:04:10;;;;;;;6.43;3.92;;;8.70;27.40;;;;;;5121544;28;20378;-67
2022/03/11 10:06:44;;;;;;;5.25;3.63;;;8.60;27.20;;;;;;5122568;28;20316;-67
2022/03/11 10:09:20;;;;;;;7.53;3.72;;;8.70;27.40;;;;;;5122548;28;20045;-66
2022/03/11 10:11:55;;;;;;;6.00;3.35;;;8.80;27.30;;;;;;5121078;28;20023;-66
2022/03/11 10:14:32;;;;;;;7.07;3.70;;;8.80;27.60;;;;;;5122437;28;20377;-66
2022/03/11 10:16:59;;;;;;;6.05;3.58;;;8.90;27.40;;;;;;5122321;28;20064;-66
2022/03/11 10:19:25;;;;;;;6.35;3.42;;;9.00;27.50;;;;;;5122204;28;20027;-66
2022/03/11 10:21:51;;;;;;;4.22;3.00;;;9.00;27.30;;;;;;5122188;28;20070;-66
2022/03/11 10:24:21;;;;;;;6.95;4.00;;;9.00;27.10;;;;;;5122207;28;20083;-66
2022/03/11 10:26:47;;;;;;;5.15;3.40;;;9.00;27.20;;;;;;5120904;28;20025;-66
2022/03/11 10:29:16;;;;;;;5.45;3.75;;;9.00;27.00;;;;;;5122104;28;20055;-66
2022/03/11 10:31:45;;;;;;;4.05;3.08;;;9.00;27.20;;;;;;5122115;28;20043;-66
2022/03/11 10:34:17;;;;;;;4.70;3.30;;;9.10;27.20;;;;;;5122013;28;20027;-66
2022/03/11 10:36:55;;;;;;;5.68;3.38;;;9.20;27.20;;;;;;5121953;28;20030;-65
2022/03/11 10:39:42;;;;;;;4.90;2.97;;;9.20;27.10;;;;;;5121816;28;20028;-66
2022/03/11 10:42:41;;;;;;;5.45;3.25;;;9.30;27.30;;;;;;5121821;28;20094;-66
2022/03/11 10:45:22;;;;;;;6.10;3.33;;;9.30;27.40;;;;;;5106098;28;20051;-65
2022/03/11 10:47:57;;;;;;;5.25;3.72;;;9.40;27.60;;;;;;5121714;28;20019;-67
2022/03/11 10:50:25;;;;;;;5.18;2.83;;;9.40;27.90;;;;;;5121648;28;20117;-66
2022/03/11 10:52:51;;;;;;;5.00;3.13;;;9.50;27.70;;;;;;5121691;28;20027;-65
2022/03/11 10:55:29;;;;;;;5.13;3.63;;;9.50;27.50;;;;;;5121485;28;20031;-65
2022/03/11 10:58:00;;;;;;;5.30;3.10;;;9.50;28.10;;;;;;5121577;28;20016;-66
2022/03/11 11:00:28;;;;;;;5.32;3.05;;;9.60;29.10;;;;;;5121431;28;20024;-67
2022/03/11 11:02:56;;;;;;;4.40;3.10;;;9.70;29.20;;;;;;5121488;28;20375;-66
2022/03/11 11:05:22;;;;;;;7.32;3.05;;;9.80;29.20;;;;;;5121472;28;20030;-66
2022/03/11 11:07:49;;;;;;;6.30;2.92;;;9.90;29.30;;;;;;5121351;28;20060;-67
2022/03/11 11:10:20;;;;;;;4.97;3.58;;;9.90;29.20;;;;;;5121261;28;20319;-67
2022/03/11 11:12:49;;;;;;;4.82;3.08;;;10.00;29.40;;;;;;5121373;28;20088;-66
2022/03/11 11:15:15;;;;;;;5.70;3.45;;;10.10;29.50;;;;;;5121199;28;20026;-65
2022/03/11 11:17:47;;;;;;;3.80;2.72;;;10.10;29.10;;;;;;5121215;28;20020;-65
2022/03/11 11:20:27;;;;;;;6.03;3.15;;;10.10;29.50;;;;;;5121135;28;20237;-66
2022/03/11 11:22:54;;;;;;;5.38;3.00;;;10.20;29.50;;;;;;5121195;28;20107;-66
2022/03/11 11:25:22;;;;;;;4.35;3.05;;;10.20;29.50;;;;;;5121120;28;20346;-66
2022/03/11 11:27:49;;;;;;;6.33;3.07;;;10.20;29.40;;;;;;5121065;28;20017;-67
2022/03/11 11:30:21;;;;;;;4.63;3.22;;;10.10;28.90;;;;;;5120990;28;20031;-68
2022/03/11 11:32:49;;;;;;;9.15;3.92;;;10.10;29.70;;;;;;5120982;28;20011;-66
2022/03/11 11:35:35;;;;;;;5.03;3.10;;;10.20;29.50;;;;;;5120911;28;20015;-66
2022/03/11 11:38:04;;;;;;;5.20;3.10;;;10.20;29.60;;;;;;5120959;27;20050;-68
2022/03/11 11:40:32;;;;;;;5.90;3.22;;;10.20;29.20;;;;;;5120855;28;20055;-67
2022/03/11 11:43:25;;;;;;;5.75;3.88;;;10.20;29.60;;;;;;5120879;28;20317;-65
2022/03/11 11:45:54;;;;;;;4.18;2.78;;;10.20;29.40;;;;;;5120840;28;20072;-66
2022/03/11 11:48:49;;;;;;;3.97;3.10;;;10.20;29.50;;;;;;5120812;28;20024;-67
2022/03/11 11:51:18;;;;;;;4.50;2.72;;;10.10;29.10;;;;;;5120036;28;20027;-66
2022/03/11 11:53:51;;;;;;;;;;;10.10;28.50;;;;;;5121182;28;20043;-66
2022/03/11 11:56:34;;;;;;;4.18;2.65;;;10.20;29.20;;;;;;5120613;28;19943;-66
2022/03/11 11:59:04;;;;;;;5.00;3.08;;;10.20;29.80;;;;;;5120664;28;20032;-66
2022/03/11 12:01:38;;;;;;;4.68;3.15;;;10.30;29.90;;;;;;5120579;28;20248;-66
2022/03/11 12:04:27;;;;;;;6.53;3.58;;;10.40;29.90;;;;;;5120583;28;20042;-66
2022/03/11 12:07:00;;;;;;;4.03;2.85;;;10.40;29.90;;;;;;5120654;28;20370;-67
2022/03/11 12:09:38;;;;;;;4.40;2.75;;;10.50;29.90;;;;;;5119299;28;20031;-67
2022/03/11 12:12:08;;;;;;;5.97;3.22;;;10.50;30.00;;;;;;5119221;28;20254;-67
2022/03/11 12:14:57;;;;;;;7.25;2.78;;;10.50;29.90;;;;;;5120736;28;20027;-66
2022/03/11 12:17:37;;;;;;;4.15;2.80;;;10.50;29.70;;;;;;5107643;28;20031;-67
2022/03/11 12:20:21;;;;;;;5.13;3.35;;;10.50;29.90;;;;;;5120442;28;20026;-67
2022/03/11 12:22:54;;;;;;;4.45;3.15;;;10.50;30.00;;;;;;5120302;28;20027;-66
2022/03/11 12:25:31;;;;;;;7.78;2.60;;;10.60;30.10;;;;;;5120499;28;20032;-66
2022/03/11 12:28:18;;;;;;;4.68;2.88;;;10.60;30.10;;;;;;5120382;28;20026;-66
2022/03/11 12:30:46;;;;;;;5.07;2.63;;;10.60;30.20;;;;;;5119823;28;20069;-66
2022/03/11 12:33:18;;;;;;;4.85;3.15;;;10.60;29.30;;;;;;5120316;28;20079;-67
2022/03/11 12:35:46;;;;;;;5.70;3.17;;;10.60;29.20;;;;;;5120280;28;20027;-67
2022/03/11 12:38:17;;;;;;;5.90;3.15;;;10.60;30.00;;;;;;5120272;28;20024;-67
2022/03/11 12:40:44;;;;;;;3.90;3.20;;;10.60;30.10;;;;;;5120058;28;20219;-68
2022/03/11 12:43:12;;;;;;;8.10;2.88;;;10.70;29.70;;;;;;5120246;28;20026;-68
2022/03/11 12:45:39;;;;;;;4.13;2.85;;;10.60;29.60;;;;;;5120185;28;20015;-67
2022/03/11 12:48:07;;;;;;;5.78;2.83;;;10.60;29.00;;;;;;5120158;28;20026;-68
2022/03/11 12:50:33;;;;;;;8.43;3.40;;;10.50;29.40;;;;;;5120173;28;20016;-68
2022/03/11 12:52:59;;;;;;;4.95;3.22;;;10.60;29.70;;;;;;5120135;28;20035;-67
2022/03/11 12:55:31;;;;;;;5.57;3.10;;;10.60;29.50;;;;;;5120063;28;20064;-67
2022/03/11 12:58:04;;;;;;;4.80;3.17;;;10.70;29.90;;;;;;5120080;28;20038;-67